createdAt,value
2022-12-18T00:01:34.236Z,102588.50
2022-12-18T00:04:06.695Z,102594.66
2022-12-18T00:06:35.826Z,102609.59
2022-12-18T00:09:05.487Z,102617.47
2022-12-18T00:11:34.016Z,102620.91
2022-12-18T00:14:02.213Z,102623.47
2022-12-18T00:16:31.939Z,102618.13
2022-12-18T00:19:00.344Z,102614.56
2022-12-18T00:21:29.474Z,102609.19
2022-12-18T00:23:58.033Z,102608.22
2022-12-18T00:26:29.552Z,102603.75
2022-12-18T00:29:00.789Z,102605.50
2022-12-18T00:31:29.543Z,102606.38
2022-12-18T00:33:58.426Z,102598.50
2022-12-18T00:36:28.659Z,102589.78
2022-12-18T00:38:57.748Z,102588.94
2022-12-18T00:41:44.765Z,102595.97
2022-12-18T00:44:14.743Z,102588.97
2022-12-18T00:46:43.291Z,102588.19
2022-12-18T00:49:14.191Z,102590.94
2022-12-18T00:51:42.438Z,102602.41
2022-12-18T00:54:10.921Z,102596.34
2022-12-18T00:56:48.301Z,102598.13
2022-12-18T00:59:17.302Z,102599.06
2022-12-18T01:01:45.832Z,102611.31
2022-12-18T01:04:14.156Z,102612.16
2022-12-18T01:06:42.400Z,102607.66
2022-12-18T01:09:10.437Z,102621.59
2022-12-18T01:11:40.064Z,102632.03
2022-12-18T01:14:08.383Z,102633.63
2022-12-18T01:16:36.461Z,102620.41
2022-12-18T01:19:04.649Z,102622.09
2022-12-18T01:21:32.748Z,102620.28
2022-12-18T01:24:00.989Z,102610.66
2022-12-18T01:26:30.548Z,102608.97
2022-12-18T01:29:00.491Z,102624.72
2022-12-18T01:31:30.296Z,102634.44
2022-12-18T01:33:59.432Z,102627.44
2022-12-18T01:36:29.493Z,102629.28
2022-12-18T01:38:58.296Z,102634.53
2022-12-18T01:41:48.305Z,102642.38
2022-12-18T01:44:49.396Z,102652.88
2022-12-18T01:47:23.892Z,102644.94
2022-12-18T01:49:52.443Z,102638.75
2022-12-18T01:52:21.101Z,102640.50
2022-12-18T01:54:49.650Z,102641.28
2022-12-18T01:57:18.033Z,102643.06
2022-12-18T01:59:49.610Z,102645.69
2022-12-18T02:02:19.896Z,102642.19
2022-12-18T02:04:49.654Z,102648.28
2022-12-18T02:07:24.706Z,102660.53
2022-12-18T02:09:56.259Z,102659.56
2022-12-18T02:12:26.496Z,102651.66
2022-12-18T02:15:00.910Z,102646.31
2022-12-18T02:17:34.919Z,102652.47
2022-12-18T02:20:10.523Z,102649.88
2022-12-18T02:22:46.774Z,102638.44
2022-12-18T02:25:24.666Z,102645.53
2022-12-18T02:27:55.137Z,102653.41
2022-12-18T02:30:23.763Z,102658.63
2022-12-18T02:32:54.280Z,102657.78
2022-12-18T02:35:25.908Z,102657.78
2022-12-18T02:37:58.628Z,102658.66
2022-12-18T02:40:28.291Z,102661.25
2022-12-18T02:42:57.739Z,102672.63
2022-12-18T02:45:25.753Z,102670.81
2022-12-18T02:47:53.809Z,102668.97
2022-12-18T02:50:28.439Z,102665.38
2022-12-18T02:53:03.098Z,102662.69
2022-12-18T02:55:41.625Z,102656.50
2022-12-18T02:58:16.469Z,102647.69
2022-12-18T03:00:50.171Z,102657.25
2022-12-18T03:03:21.765Z,102664.25
2022-12-18T03:05:52.685Z,102668.56
2022-12-18T03:08:23.839Z,102656.25
2022-12-18T03:10:55.784Z,102642.19
2022-12-18T03:13:32.361Z,102643.03
2022-12-18T03:16:01.705Z,102635.06
2022-12-18T03:18:35.673Z,102646.47
2022-12-18T03:21:07.250Z,102655.25
2022-12-18T03:23:39.272Z,102664.84
2022-12-18T03:26:10.034Z,102680.59
2022-12-18T03:28:42.158Z,102683.22
2022-12-18T03:31:12.198Z,102674.41
2022-12-18T03:33:43.305Z,102669.13
2022-12-18T03:36:11.627Z,102665.50
2022-12-18T03:38:39.977Z,102669.91
2022-12-18T03:41:13.713Z,102666.38
2022-12-18T03:43:47.860Z,102666.44
2022-12-18T03:46:22.402Z,102669.91
2022-12-18T03:48:58.176Z,102676.94
2022-12-18T03:51:30.753Z,102669.06
2022-12-18T03:54:00.823Z,102665.66
2022-12-18T03:56:31.658Z,102669.16
2022-12-18T03:59:02.571Z,102662.19
2022-12-18T04:01:33.912Z,102648.16
2022-12-18T04:04:03.662Z,102653.41
2022-12-18T04:06:32.456Z,102637.59
2022-12-18T04:09:00.679Z,102649.00
2022-12-18T04:11:28.865Z,102636.81
2022-12-18T04:13:58.263Z,102640.28
2022-12-18T04:16:27.945Z,102635.88
2022-12-18T04:18:56.084Z,102647.31
2022-12-18T04:21:24.401Z,102647.31
2022-12-18T04:23:52.478Z,102647.38
2022-12-18T04:26:20.511Z,102653.53
2022-12-18T04:28:48.597Z,102653.59
2022-12-18T04:31:16.667Z,102664.09
2022-12-18T04:33:46.140Z,102681.63
2022-12-18T04:36:14.454Z,102681.63
2022-12-18T04:38:42.539Z,102679.91
2022-12-18T04:41:10.570Z,102684.25
2022-12-18T04:43:38.976Z,102697.38
2022-12-18T04:46:08.710Z,102693.97
2022-12-18T04:48:38.856Z,102695.69
2022-12-18T04:51:09.161Z,102694.81
2022-12-18T04:53:37.619Z,102699.16
2022-12-18T04:56:08.191Z,102692.13
2022-12-18T04:58:36.407Z,102698.22
2022-12-18T05:01:04.917Z,102682.44
2022-12-18T05:03:33.067Z,102685.84
2022-12-18T05:06:01.224Z,102684.81
2022-12-18T05:08:30.677Z,102686.50
2022-12-18T05:11:02.150Z,102689.03
2022-12-18T05:13:30.505Z,102700.38
2022-12-18T05:15:58.780Z,102697.56
2022-12-18T05:18:27.698Z,102699.19
2022-12-18T05:20:56.041Z,102699.97
2022-12-18T05:23:25.049Z,102707.72
2022-12-18T05:25:55.528Z,102704.09
2022-12-18T05:28:24.793Z,102706.63
2022-12-18T05:30:53.806Z,102709.16
2022-12-18T05:33:22.870Z,102710.81
2022-12-18T05:35:53.632Z,102716.81
2022-12-18T05:38:22.029Z,102712.38
2022-12-18T05:40:50.613Z,102703.56
2022-12-18T05:43:21.656Z,102707.81
2022-12-18T05:45:50.311Z,102715.53
2022-12-18T05:48:18.841Z,102710.28
2022-12-18T05:50:48.233Z,102710.19
2022-12-18T05:53:18.669Z,102715.44
2022-12-18T05:55:46.797Z,102718.06
2022-12-18T05:58:15.336Z,102725.88
2022-12-18T06:00:46.970Z,102719.69
2022-12-18T06:03:15.551Z,102726.59
2022-12-18T06:05:46.120Z,102735.31
2022-12-18T06:08:14.844Z,102725.59
2022-12-18T06:10:43.405Z,102730.75
2022-12-18T06:13:11.434Z,102742.94
2022-12-18T06:15:39.980Z,102737.56
2022-12-18T06:18:09.415Z,102734.91
2022-12-18T06:20:40.535Z,102740.91
2022-12-18T06:23:08.606Z,102736.44
2022-12-18T06:25:39.780Z,102740.66
2022-12-18T06:28:07.849Z,102745.81
2022-12-18T06:30:37.286Z,102745.69
2022-12-18T06:33:05.465Z,102740.31
2022-12-18T06:35:35.309Z,102742.69
2022-12-18T06:38:03.584Z,102747.00
2022-12-18T06:40:31.772Z,102742.53
2022-12-18T06:42:59.833Z,102747.72
2022-12-18T06:45:27.922Z,102759.84
2022-12-18T06:47:56.493Z,102765.91
2022-12-18T06:50:25.839Z,102758.00
2022-12-18T06:52:55.287Z,102770.09
2022-12-18T06:55:23.370Z,102763.91
2022-12-18T06:57:51.426Z,102758.44
2022-12-18T07:00:20.180Z,102759.09
2022-12-18T07:02:48.368Z,102769.53
2022-12-18T07:05:16.592Z,102773.75
2022-12-18T07:07:44.644Z,102768.44
2022-12-18T07:10:14.091Z,102778.72
2022-12-18T07:12:42.223Z,102782.06
2022-12-18T07:15:11.090Z,102783.63
2022-12-18T07:17:39.135Z,102783.59
2022-12-18T07:20:08.165Z,102787.88
2022-12-18T07:22:36.248Z,102795.72
2022-12-18T07:25:04.510Z,102801.78
2022-12-18T07:27:33.983Z,102807.88
2022-12-18T07:30:02.313Z,102811.31
2022-12-18T07:32:30.381Z,102808.69
2022-12-18T07:34:58.400Z,102813.88
2022-12-18T07:37:26.484Z,102822.56
2022-12-18T07:39:54.553Z,102827.75
2022-12-18T07:42:34.446Z,102832.84
2022-12-18T07:45:04.656Z,102833.59
2022-12-18T07:47:35.665Z,102837.94
2022-12-18T07:50:04.135Z,102829.06
2022-12-18T07:52:32.196Z,102835.19
2022-12-18T07:55:01.195Z,102834.31
2022-12-18T08:00:19.372Z,102828.31
2022-12-18T08:02:47.507Z,102813.53
2022-12-18T08:05:17.042Z,102818.78
2022-12-18T08:07:45.127Z,102830.22
2022-12-18T08:10:13.158Z,102837.34
2022-12-18T08:12:41.232Z,102833.94
2022-12-18T08:15:10.025Z,102828.81
2022-12-18T08:17:39.492Z,102823.72
2022-12-18T08:20:08.535Z,102824.75
2022-12-18T08:22:39.868Z,102827.56
2022-12-18T08:25:09.002Z,102810.25
2022-12-18T08:27:37.112Z,102810.44
2022-12-18T08:30:05.958Z,102808.72
2022-12-18T08:32:35.387Z,102811.53
2022-12-18T08:35:05.290Z,102816.94
2022-12-18T08:37:33.406Z,102816.09
2022-12-18T08:40:01.848Z,102819.63
2022-12-18T08:42:47.193Z,102827.66
2022-12-18T08:45:16.146Z,102823.22
2022-12-18T08:47:44.529Z,102820.78
2022-12-18T08:50:14.143Z,102811.31
2022-12-18T08:52:42.182Z,102818.50
2022-12-18T08:55:11.455Z,102823.03
2022-12-18T08:57:39.493Z,102818.84
2022-12-18T09:00:09.068Z,102818.06
2022-12-18T09:02:37.246Z,102822.56
2022-12-18T09:05:05.899Z,102828.03
2022-12-18T09:07:35.380Z,102834.38
2022-12-18T09:10:03.488Z,102834.56
2022-12-18T09:12:31.553Z,102841.66
2022-12-18T09:14:59.682Z,102837.56
2022-12-18T09:17:27.762Z,102833.38
2022-12-18T09:19:55.938Z,102838.78
2022-12-18T09:22:24.039Z,102833.81
2022-12-18T09:24:53.461Z,102834.16
2022-12-18T09:27:21.537Z,102827.53
2022-12-18T09:29:49.613Z,102820.00
2022-12-18T09:32:22.208Z,102827.44
2022-12-18T09:34:50.675Z,102817.41
2022-12-18T09:37:18.752Z,102832.63
2022-12-18T09:39:46.803Z,102838.31
2022-12-18T09:42:21.869Z,102834.34
2022-12-18T09:44:52.679Z,102833.81
2022-12-18T09:47:25.568Z,102830.66
2022-12-18T09:49:56.527Z,102829.31
2022-12-18T09:52:29.403Z,102826.09
2022-12-18T09:55:02.627Z,102831.59
2022-12-18T09:57:35.455Z,102823.94
2022-12-18T10:00:08.731Z,102824.13
2022-12-18T10:02:37.018Z,102829.69
2022-12-18T10:05:11.640Z,102823.09
2022-12-18T10:07:49.742Z,102816.34
2022-12-18T10:10:29.203Z,102821.66
2022-12-18T10:13:05.473Z,102823.34
2022-12-18T10:15:38.425Z,102823.31
2022-12-18T10:18:21.884Z,102821.66
2022-12-18T10:20:54.146Z,102812.22
2022-12-18T10:23:27.295Z,102825.69
2022-12-18T10:25:57.601Z,102819.00
2022-12-18T10:28:27.252Z,102820.25
2022-12-18T10:30:55.383Z,102818.84
2022-12-18T10:33:25.401Z,102826.34
2022-12-18T10:35:53.875Z,102839.88
2022-12-18T10:38:27.736Z,102851.63
2022-12-18T10:40:57.726Z,102857.81
2022-12-18T10:43:28.915Z,102844.69
2022-12-18T10:46:07.842Z,102840.28
2022-12-18T10:48:38.261Z,102837.75
2022-12-18T10:51:13.338Z,102834.38
2022-12-18T10:53:43.926Z,102831.81
2022-12-18T10:56:12.727Z,102838.78
2022-12-18T10:58:42.591Z,102834.38
2022-12-18T11:01:13.147Z,102832.66
2022-12-18T11:03:43.360Z,102833.59
2022-12-18T11:06:13.642Z,102835.38
2022-12-18T11:08:43.405Z,102845.03
2022-12-18T11:11:21.324Z,102843.28
2022-12-18T11:14:00.695Z,102853.88
2022-12-18T11:16:29.873Z,102838.16
2022-12-18T11:19:10.308Z,102835.72
2022-12-18T11:21:42.338Z,102823.56
2022-12-18T11:24:21.496Z,102822.75
2022-12-18T11:26:54.898Z,102808.66
2022-12-18T11:29:33.510Z,102814.75
2022-12-18T11:32:36.182Z,102816.41
2022-12-18T11:35:12.904Z,102816.31
2022-12-18T11:37:43.365Z,102821.56
2022-12-18T11:40:18.181Z,102822.41
2022-12-18T11:42:50.414Z,102817.97
2022-12-18T11:45:30.106Z,102822.38
2022-12-18T11:48:05.597Z,102821.59
2022-12-18T11:50:45.131Z,102817.28
2022-12-18T11:53:14.184Z,102812.06
2022-12-18T11:55:49.598Z,102818.38
2022-12-18T11:58:31.359Z,102813.34
2022-12-18T12:01:08.472Z,102804.75
2022-12-18T12:03:51.332Z,102798.75
2022-12-18T12:06:25.630Z,102795.41
2022-12-18T12:09:04.282Z,102786.78
2022-12-18T12:11:41.587Z,102780.72
2022-12-18T12:14:22.873Z,102759.63
2022-12-18T12:16:57.263Z,102763.09
2022-12-18T12:19:36.848Z,102765.69
2022-12-18T12:22:10.454Z,102776.31
2022-12-18T12:24:47.540Z,102761.38
2022-12-18T12:27:24.924Z,102759.56
2022-12-18T12:30:02.964Z,102757.63
2022-12-18T12:32:43.700Z,102758.47
2022-12-18T12:35:22.833Z,102743.50
2022-12-18T12:37:56.974Z,102744.50
2022-12-18T12:43:26.823Z,102729.75
2022-12-18T12:45:57.541Z,102728.13
2022-12-18T12:48:37.093Z,102717.56
2022-12-18T12:51:10.766Z,102711.44
2022-12-18T12:53:41.109Z,102705.25
2022-12-18T12:56:13.528Z,102706.94
2022-12-18T12:58:49.100Z,102699.84
2022-12-18T13:01:27.096Z,102689.31
2022-12-18T13:04:04.396Z,102671.75
2022-12-18T13:06:44.559Z,102664.78
2022-12-18T13:09:12.969Z,102668.25
2022-12-18T13:12:00.600Z,102665.59
2022-12-18T13:14:32.039Z,102681.44
2022-12-18T13:17:34.352Z,102686.78
2022-12-18T13:20:13.219Z,102686.78
2022-12-18T13:22:45.244Z,102695.50
2022-12-18T13:25:33.614Z,102698.03
2022-12-18T13:28:09.339Z,102698.69
2022-12-18T13:30:55.480Z,102697.56
2022-12-18T13:36:41.729Z,102685.63
2022-12-18T13:39:29.969Z,102682.72
2022-12-18T13:42:57.184Z,102678.16
2022-12-18T13:45:47.458Z,102678.84
2022-12-18T13:48:21.298Z,102683.03
2022-12-18T13:50:58.629Z,102687.28
2022-12-18T13:53:31.687Z,102680.97
2022-12-18T13:56:00.315Z,102692.28
2022-12-18T13:58:28.623Z,102694.84
2022-12-18T14:00:57.694Z,102707.88
2022-12-18T14:03:28.419Z,102706.00
2022-12-18T14:06:00.315Z,102711.13
2022-12-18T14:08:34.674Z,102716.25
2022-12-18T14:11:03.345Z,102713.47
2022-12-18T14:13:34.967Z,102708.03
2022-12-18T14:16:04.851Z,102705.25
2022-12-18T14:18:41.050Z,102692.75
2022-12-18T14:21:18.976Z,102689.13
2022-12-18T14:23:48.827Z,102684.66
2022-12-18T14:26:26.331Z,102680.09
2022-12-18T14:28:55.547Z,102688.75
2022-12-18T14:31:25.597Z,102686.00
2022-12-18T14:33:54.292Z,102691.94
2022-12-18T14:36:24.154Z,102687.38
2022-12-18T14:38:55.696Z,102688.97
2022-12-18T14:41:24.707Z,102686.16
2022-12-18T14:43:55.054Z,102681.50
2022-12-18T14:46:36.441Z,102677.91
2022-12-18T14:49:06.737Z,102679.38
2022-12-18T14:51:36.113Z,102684.56
2022-12-18T14:54:09.217Z,102683.63
2022-12-18T14:56:38.607Z,102681.72
2022-12-18T14:59:08.276Z,102672.84
2022-12-18T15:01:39.475Z,102673.66
2022-12-18T15:04:25.396Z,102666.63
2022-12-18T15:07:09.943Z,102664.72
2022-12-18T15:09:40.173Z,102655.84
2022-12-18T15:12:26.304Z,102658.44
2022-12-18T15:14:54.864Z,102647.88
2022-12-18T15:17:26.808Z,102646.94
2022-12-18T15:20:01.390Z,102640.66
2022-12-18T15:22:31.674Z,102651.19
2022-12-18T15:25:01.287Z,102643.19
2022-12-18T15:27:32.882Z,102638.78
2022-12-18T15:30:20.284Z,102629.88
2022-12-18T15:32:49.852Z,102634.25
2022-12-18T15:35:21.444Z,102647.34
2022-12-18T15:37:49.714Z,102639.47
2022-12-18T15:40:20.870Z,102636.84
2022-12-18T15:43:07.249Z,102634.13
2022-12-18T15:45:35.675Z,102622.63
2022-12-18T15:48:07.464Z,102621.66
2022-12-18T15:50:35.544Z,102623.38
2022-12-18T15:53:03.661Z,102623.34
2022-12-18T15:55:55.331Z,102612.78
2022-12-18T15:58:27.414Z,102609.28
2022-12-18T16:00:56.633Z,102617.91
2022-12-18T16:03:24.767Z,102614.41
2022-12-18T16:05:54.335Z,102624.88
2022-12-18T16:08:22.465Z,102621.34
2022-12-18T16:10:51.895Z,102612.63
2022-12-18T16:13:21.251Z,102605.59
2022-12-18T16:15:49.396Z,102593.25
2022-12-18T16:18:17.508Z,102585.28
2022-12-18T16:20:45.636Z,102581.81
2022-12-18T16:23:13.687Z,102584.47
2022-12-18T16:25:41.758Z,102575.72
2022-12-18T16:28:11.211Z,102580.16
2022-12-18T16:30:39.396Z,102583.72
2022-12-18T16:33:07.721Z,102583.75
2022-12-18T16:35:38.068Z,102571.59
2022-12-18T16:38:06.586Z,102594.41
2022-12-18T16:40:54.869Z,102590.94
2022-12-18T16:43:24.309Z,102596.28
2022-12-18T16:45:52.460Z,102586.75
2022-12-18T16:48:20.531Z,102580.63
2022-12-18T16:50:48.570Z,102575.41
2022-12-18T16:53:16.651Z,102567.50
2022-12-18T16:55:44.878Z,102565.88
2022-12-18T16:58:12.975Z,102565.03
2022-12-18T17:00:42.398Z,102564.19
2022-12-18T17:03:10.629Z,102554.53
2022-12-18T17:05:40.240Z,102544.94
2022-12-18T17:08:08.320Z,102535.31
2022-12-18T17:10:36.940Z,102546.75
2022-12-18T17:13:04.971Z,102538.03
2022-12-18T17:15:36.241Z,102538.88
2022-12-18T17:18:05.741Z,102527.56
2022-12-18T17:20:33.802Z,102521.44
2022-12-18T17:23:01.964Z,102519.66
2022-12-18T17:25:31.002Z,102511.78
2022-12-18T17:27:59.055Z,102513.53
2022-12-18T17:30:27.100Z,102501.31
2022-12-18T17:32:55.221Z,102495.22
2022-12-18T17:35:24.668Z,102502.31
2022-12-18T17:37:52.750Z,102501.50
2022-12-18T17:40:20.775Z,102497.22
2022-12-18T17:42:48.821Z,102506.88
2022-12-18T17:45:17.141Z,102506.03
2022-12-18T17:47:45.218Z,102499.94
2022-12-18T17:50:13.343Z,102509.59
2022-12-18T17:52:42.814Z,102508.81
2022-12-18T17:55:11.368Z,102500.09
2022-12-18T17:57:39.519Z,102495.72
2022-12-18T18:00:09.659Z,102484.38
2022-12-18T18:02:40.224Z,102469.50
2022-12-18T18:05:10.009Z,102452.03
2022-12-18T18:07:39.653Z,102447.66
2022-12-18T18:10:10.047Z,102439.81
2022-12-18T18:12:55.661Z,102426.78
2022-12-18T18:15:23.893Z,102434.66
2022-12-18T18:17:52.233Z,102427.69
2022-12-18T18:20:22.698Z,102428.63
2022-12-18T18:22:51.008Z,102427.81
2022-12-18T18:25:20.465Z,102426.94
2022-12-18T18:27:48.875Z,102419.09
2022-12-18T18:30:17.110Z,102422.63
2022-12-18T18:32:46.819Z,102415.69
2022-12-18T18:35:37.493Z,102417.50
2022-12-18T18:38:04.407Z,102401.78
2022-12-18T18:40:33.876Z,102388.69
2022-12-18T18:43:02.014Z,102381.72
2022-12-18T18:45:32.408Z,102374.75
2022-12-18T18:48:00.480Z,102382.69
2022-12-18T18:50:28.548Z,102373.16
2022-12-18T18:52:56.847Z,102369.69
2022-12-18T18:55:25.729Z,102366.19
2022-12-18T18:57:55.362Z,102369.72
2022-12-18T19:00:23.420Z,102375.00
2022-12-18T19:02:53.999Z,102364.63
2022-12-18T19:05:24.436Z,102357.66
2022-12-18T19:07:52.555Z,102355.06
2022-12-18T19:10:20.620Z,102355.13
2022-12-18T19:13:05.814Z,102351.63
2022-12-18T19:15:36.037Z,102348.19
2022-12-18T19:18:04.453Z,102342.13
2022-12-18T19:20:32.819Z,102341.28
2022-12-18T19:23:00.884Z,102336.03
2022-12-18T19:25:38.395Z,102326.47
2022-12-18T19:28:14.402Z,102316.84
2022-12-18T19:30:57.617Z,102309.88
2022-12-18T19:33:44.853Z,102303.75
2022-12-18T19:36:15.894Z,102310.00
2022-12-18T19:38:45.542Z,102310.03
2022-12-18T19:41:14.800Z,102302.16
2022-12-18T19:43:43.194Z,102298.69
2022-12-18T19:46:15.174Z,102287.41
2022-12-18T19:48:44.243Z,102272.50
2022-12-18T19:51:15.085Z,102262.91
2022-12-18T19:53:43.311Z,102259.44
2022-12-18T19:56:14.889Z,102255.09
2022-12-18T19:58:43.680Z,102253.41
2022-12-18T20:01:14.146Z,102264.88
2022-12-18T20:03:51.581Z,102255.28
2022-12-18T20:06:25.633Z,102249.16
2022-12-18T20:08:57.679Z,102243.06
2022-12-18T20:11:29.375Z,102237.81
2022-12-18T20:13:57.501Z,102240.50
2022-12-18T20:16:27.002Z,102238.81
2022-12-18T20:18:57.823Z,102229.19
2022-12-18T20:21:26.617Z,102234.47
2022-12-18T20:23:55.727Z,102231.00
2022-12-18T20:26:23.953Z,102229.28
2022-12-18T20:28:52.054Z,102221.38
2022-12-18T20:31:20.519Z,102224.94
2022-12-18T20:33:51.019Z,102222.34
2022-12-18T20:36:24.647Z,102219.75
2022-12-18T20:38:57.317Z,102214.50
2022-12-18T20:41:36.064Z,102210.16
2022-12-18T20:44:12.781Z,102198.75
2022-12-18T20:46:50.953Z,102197.88
2022-12-18T20:49:20.430Z,102192.69
2022-12-18T20:51:51.349Z,102185.75
2022-12-18T20:54:22.217Z,102185.72
2022-12-18T20:56:50.656Z,102187.50
2022-12-18T20:59:19.680Z,102178.75
2022-12-18T21:01:48.853Z,102176.19
2022-12-18T21:04:18.492Z,102169.97
2022-12-18T21:06:53.070Z,102170.06
2022-12-18T21:09:24.430Z,102171.88
2022-12-18T21:12:10.385Z,102155.22
2022-12-18T21:14:42.371Z,102157.00
2022-12-18T21:17:10.560Z,102153.53
2022-12-18T21:19:38.940Z,102150.00
2022-12-18T21:22:08.395Z,102143.84
2022-12-18T21:24:36.429Z,102143.88
2022-12-18T21:27:04.548Z,102145.63
2022-12-18T21:29:33.139Z,102142.09
2022-12-18T21:32:01.817Z,102137.72
2022-12-18T21:34:31.918Z,102145.63
2022-12-18T21:37:01.249Z,102135.03
2022-12-18T21:39:31.542Z,102130.72
2022-12-18T21:42:17.449Z,102125.44
2022-12-18T21:44:47.998Z,102121.94
2022-12-18T21:47:22.611Z,102120.19
2022-12-18T21:49:52.583Z,102129.88
2022-12-18T21:52:21.630Z,102129.88
2022-12-18T21:55:08.334Z,102138.72
2022-12-18T21:57:37.091Z,102144.88
2022-12-18T22:00:06.258Z,102138.72
2022-12-18T22:02:34.437Z,102120.19
2022-12-18T22:05:02.647Z,102125.53
2022-12-18T22:07:30.884Z,102139.66
2022-12-18T22:09:59.306Z,102139.63
2022-12-18T22:12:43.566Z,102144.88
2022-12-18T22:15:20.280Z,102152.88
2022-12-18T22:17:51.256Z,102137.03
2022-12-18T22:20:25.761Z,102138.84
2022-12-18T22:22:54.921Z,102120.41
2022-12-18T22:25:22.990Z,102120.41
2022-12-18T22:28:06.304Z,102121.34
2022-12-18T22:30:34.395Z,102113.44
2022-12-18T22:33:03.547Z,102106.41
2022-12-18T22:35:31.727Z,102110.84
2022-12-18T22:37:59.886Z,102104.66
2022-12-18T22:40:29.072Z,102102.81
2022-12-18T22:42:58.633Z,102100.19
2022-12-18T22:45:27.873Z,102109.00
2022-12-18T22:47:56.098Z,102102.88
2022-12-18T22:50:24.164Z,102085.31
2022-12-18T22:52:52.229Z,102082.69
2022-12-18T22:55:20.441Z,102072.13
2022-12-18T22:57:49.018Z,102079.09
2022-12-18T23:00:23.796Z,102053.59
2022-12-18T23:02:59.457Z,102058.88
2022-12-18T23:05:29.966Z,102047.44
2022-12-18T23:07:58.287Z,102050.97
2022-12-18T23:10:27.357Z,102037.75
2022-12-18T23:12:55.494Z,102035.94
2022-12-18T23:15:27.731Z,102021.03
2022-12-18T23:17:58.666Z,102024.53
2022-12-18T23:20:27.033Z,102020.13
2022-12-18T23:22:55.164Z,102009.56
2022-12-18T23:25:23.271Z,102018.28
2022-12-18T23:27:51.408Z,102018.28
2022-12-18T23:30:19.474Z,102011.28
2022-12-18T23:32:48.913Z,102009.56
2022-12-18T23:35:17.551Z,102003.38
2022-12-18T23:38:01.178Z,101997.22
2022-12-18T23:40:29.899Z,101990.16
2022-12-18T23:42:58.046Z,101994.56
2022-12-18T23:45:26.103Z,101991.94
2022-12-18T23:47:55.563Z,101987.50
2022-12-18T23:50:28.989Z,101990.13
2022-12-18T23:53:03.277Z,101986.56
2022-12-18T23:55:38.467Z,101994.50
2022-12-18T23:58:06.568Z,101993.59
